createdAt,value
2022-11-22T00:00:17.468Z,95.05
2022-11-22T00:02:44.440Z,95.21
2022-11-22T00:05:11.742Z,95.21
2022-11-22T00:07:38.784Z,95.42
2022-11-22T00:10:07.014Z,95.12
2022-11-22T00:12:33.598Z,95.76
2022-11-22T00:15:00.173Z,95.37
2022-11-22T00:17:26.765Z,95.32
2022-11-22T00:19:53.312Z,95.23
2022-11-22T00:22:19.831Z,95.11
2022-11-22T00:24:46.389Z,95.22
2022-11-22T00:27:12.921Z,95.07
2022-11-22T00:29:39.441Z,95.81
2022-11-22T00:32:06.031Z,95.74
2022-11-22T00:34:32.564Z,95.81
2022-11-22T00:36:59.114Z,96.08
2022-11-22T00:39:25.680Z,95.82
2022-11-22T00:41:52.186Z,95.58
2022-11-22T00:44:18.727Z,96.57
2022-11-22T00:46:45.281Z,95.82
2022-11-22T00:49:11.919Z,95.78
2022-11-22T00:51:38.549Z,96.22
2022-11-22T00:54:05.257Z,95.97
2022-11-22T00:56:32.116Z,96.29
2022-11-22T00:58:59.062Z,96.05
2022-11-22T01:01:25.737Z,96.64
2022-11-22T01:03:52.281Z,95.76
2022-11-22T01:06:19.449Z,96.21
2022-11-22T01:08:45.965Z,96.09
2022-11-22T01:11:15.317Z,96.24
2022-11-22T01:13:41.873Z,95.99
2022-11-22T01:16:10.436Z,96.88
2022-11-22T01:18:37.767Z,96.23
2022-11-22T01:21:05.986Z,96.29
2022-11-22T01:23:33.637Z,96.00
2022-11-22T01:26:00.420Z,96.33
2022-11-22T01:28:27.575Z,96.60
2022-11-22T01:30:54.802Z,96.73
2022-11-22T01:33:21.708Z,96.51
2022-11-22T01:35:48.588Z,95.97
2022-11-22T01:38:15.141Z,96.34
2022-11-22T01:40:42.061Z,96.64
2022-11-22T01:43:20.905Z,96.69
2022-11-22T01:45:55.297Z,96.47
2022-11-22T01:48:25.453Z,96.58
2022-11-22T01:50:59.276Z,96.69
2022-11-22T01:53:28.355Z,96.67
2022-11-22T01:55:57.325Z,96.90
2022-11-22T01:58:24.964Z,96.77
2022-11-22T02:00:53.426Z,96.69
2022-11-22T02:03:21.740Z,96.28
2022-11-22T02:05:50.173Z,96.64
2022-11-22T02:08:37.852Z,96.64
2022-11-22T02:11:05.664Z,96.75
2022-11-22T02:13:36.126Z,97.08
2022-11-22T02:16:04.288Z,96.57
2022-11-22T02:18:31.109Z,96.80
2022-11-22T02:20:58.595Z,96.77
2022-11-22T02:23:37.315Z,96.82
2022-11-22T02:26:04.170Z,97.09
2022-11-22T02:28:34.756Z,97.33
2022-11-22T02:31:01.285Z,96.59
2022-11-22T02:33:27.821Z,96.94
2022-11-22T02:35:55.156Z,97.08
2022-11-22T02:38:26.086Z,96.97
2022-11-22T02:40:57.052Z,97.34
2022-11-22T02:43:46.592Z,97.03
2022-11-22T02:46:20.465Z,97.20
2022-11-22T02:48:47.954Z,97.07
2022-11-22T02:51:17.079Z,96.77
2022-11-22T02:53:44.631Z,97.18
2022-11-22T02:56:11.221Z,97.20
2022-11-22T02:58:38.019Z,97.27
2022-11-22T03:01:04.879Z,97.04
2022-11-22T03:03:32.896Z,97.11
2022-11-22T03:05:59.563Z,97.01
2022-11-22T03:08:26.075Z,97.47
2022-11-22T03:10:52.580Z,97.46
2022-11-22T03:13:19.131Z,97.48
2022-11-22T03:15:47.588Z,97.21
2022-11-22T03:18:14.071Z,97.18
2022-11-22T03:20:40.610Z,97.48
2022-11-22T03:23:07.208Z,97.56
2022-11-22T03:25:37.979Z,97.34
2022-11-22T03:28:04.673Z,97.69
2022-11-22T03:30:31.240Z,97.27
2022-11-22T03:32:57.776Z,97.43
2022-11-22T03:35:24.317Z,97.44
2022-11-22T03:37:50.876Z,97.49
2022-11-22T03:40:17.379Z,97.24
2022-11-22T03:42:43.923Z,97.16
2022-11-22T03:45:10.848Z,97.58
2022-11-22T03:47:37.368Z,97.54
2022-11-22T03:50:05.092Z,97.27
2022-11-22T03:52:31.602Z,97.24
2022-11-22T03:54:58.101Z,97.61
2022-11-22T03:57:24.664Z,98.23
2022-11-22T03:59:51.150Z,97.38
2022-11-22T04:02:17.652Z,97.35
2022-11-22T04:04:44.170Z,97.89
2022-11-22T04:07:10.734Z,97.83
2022-11-22T04:09:37.343Z,97.95
2022-11-22T04:12:04.113Z,97.68
2022-11-22T04:14:48.912Z,97.48
2022-11-22T04:17:35.354Z,97.39
2022-11-22T04:20:21.812Z,97.34
2022-11-22T04:23:09.139Z,97.66
2022-11-22T04:25:37.896Z,97.76
2022-11-22T04:28:06.557Z,97.39
2022-11-22T04:30:52.452Z,97.92
2022-11-22T04:33:19.079Z,97.78
2022-11-22T04:35:46.268Z,97.41
2022-11-22T04:38:13.654Z,97.29
2022-11-22T04:40:40.556Z,97.89
2022-11-22T04:43:26.377Z,97.40
2022-11-22T04:45:52.996Z,97.97
2022-11-22T04:48:19.766Z,97.69
2022-11-22T04:51:05.144Z,97.39
2022-11-22T04:53:31.695Z,97.79
2022-11-22T04:55:58.290Z,97.44
2022-11-22T04:58:24.867Z,97.40
2022-11-22T05:00:51.911Z,97.47
2022-11-22T05:03:18.700Z,97.60
2022-11-22T05:05:45.555Z,97.81
2022-11-22T05:08:12.829Z,97.35
2022-11-22T05:10:58.250Z,98.21
2022-11-22T05:13:26.444Z,97.72
2022-11-22T05:15:54.024Z,97.92
2022-11-22T05:18:21.805Z,97.61
2022-11-22T05:20:48.476Z,97.79
2022-11-22T05:23:34.116Z,98.34
2022-11-22T05:26:00.688Z,98.11
2022-11-22T05:28:32.589Z,98.00
2022-11-22T05:30:59.392Z,97.89
2022-11-22T05:33:25.954Z,97.60
2022-11-22T05:35:52.476Z,98.06
2022-11-22T05:38:19.042Z,98.02
2022-11-22T05:40:45.612Z,97.34
2022-11-22T05:43:12.128Z,97.54
2022-11-22T05:45:38.665Z,97.94
2022-11-22T05:48:05.330Z,97.28
2022-11-22T05:50:31.838Z,97.43
2022-11-22T05:53:02.911Z,97.61
2022-11-22T05:55:30.648Z,97.54
2022-11-22T05:58:01.463Z,97.69
2022-11-22T06:00:29.818Z,97.39
2022-11-22T06:03:04.159Z,97.31
2022-11-22T06:05:31.123Z,97.07
2022-11-22T06:08:00.109Z,96.96
2022-11-22T06:10:27.242Z,97.41
2022-11-22T06:12:54.204Z,97.04
2022-11-22T06:15:21.948Z,97.67
2022-11-22T06:17:48.517Z,96.99
2022-11-22T06:20:15.550Z,96.79
2022-11-22T06:22:42.185Z,97.07
2022-11-22T06:25:09.528Z,96.80
2022-11-22T06:27:36.078Z,97.19
2022-11-22T06:30:02.596Z,97.26
2022-11-22T06:32:32.629Z,97.12
2022-11-22T06:34:59.160Z,96.78
2022-11-22T06:37:25.717Z,96.64
2022-11-22T06:39:52.264Z,96.44
2022-11-22T06:42:18.792Z,96.62
2022-11-22T06:44:45.309Z,96.31
2022-11-22T06:47:11.885Z,96.54
2022-11-22T06:49:38.394Z,96.59
2022-11-22T06:52:05.294Z,96.16
2022-11-22T06:54:31.802Z,96.34
2022-11-22T06:56:58.329Z,96.43
2022-11-22T06:59:24.840Z,95.59
2022-11-22T07:01:51.568Z,95.87
2022-11-22T07:04:18.144Z,95.78
2022-11-22T07:06:44.701Z,95.29
2022-11-22T07:09:11.734Z,95.33
2022-11-22T07:11:40.323Z,95.11
2022-11-22T07:14:08.807Z,94.63
2022-11-22T07:16:37.424Z,94.99
2022-11-22T07:19:04.863Z,95.44
2022-11-22T07:21:32.453Z,94.89
2022-11-22T07:23:59.019Z,94.75
2022-11-22T07:26:26.363Z,94.95
2022-11-22T07:28:52.901Z,94.93
2022-11-22T07:31:19.602Z,94.54
2022-11-22T07:33:46.345Z,94.46
2022-11-22T07:36:18.228Z,94.47
2022-11-22T07:38:45.649Z,94.11
2022-11-22T07:41:13.135Z,94.14
2022-11-22T07:43:40.073Z,94.25
2022-11-22T07:46:18.378Z,94.00
2022-11-22T07:48:44.866Z,94.29
2022-11-22T07:51:11.477Z,94.04
2022-11-22T07:53:37.996Z,93.48
2022-11-22T07:56:05.985Z,93.87
2022-11-22T07:58:33.853Z,93.18
2022-11-22T08:01:11.317Z,93.72
2022-11-22T08:03:38.949Z,93.00
2022-11-22T08:06:08.531Z,92.92
2022-11-22T08:08:36.289Z,92.36
2022-11-22T08:11:03.238Z,92.36
2022-11-22T08:13:30.981Z,92.39
2022-11-22T08:16:06.132Z,92.55
2022-11-22T08:18:33.704Z,92.69
2022-11-22T08:21:09.072Z,92.27
2022-11-22T08:23:36.403Z,92.58
2022-11-22T08:26:03.382Z,92.51
2022-11-22T08:28:30.348Z,91.95
2022-11-22T08:31:02.692Z,91.75
2022-11-22T08:33:29.295Z,92.38
2022-11-22T08:35:55.850Z,92.11
2022-11-22T08:38:22.358Z,92.07
2022-11-22T08:40:48.907Z,92.17
2022-11-22T08:43:15.484Z,91.74
2022-11-22T08:45:42.060Z,91.28
2022-11-22T08:48:08.617Z,91.10
2022-11-22T08:50:35.155Z,91.34
2022-11-22T08:53:01.950Z,90.90
2022-11-22T08:55:28.544Z,91.38
2022-11-22T08:57:59.055Z,91.47
2022-11-22T09:00:31.736Z,91.60
2022-11-22T09:02:59.832Z,91.43
2022-11-22T09:05:26.610Z,91.17
2022-11-22T09:10:39.868Z,91.89
2022-11-22T09:13:06.484Z,92.30
2022-11-22T09:15:33.084Z,91.57
2022-11-22T09:18:03.608Z,92.22
2022-11-22T09:20:30.323Z,92.42
2022-11-22T09:22:56.869Z,92.44
2022-11-22T09:25:23.380Z,91.95
2022-11-22T09:27:50.065Z,92.00
2022-11-22T09:30:16.786Z,92.39
2022-11-22T09:32:44.864Z,91.97
2022-11-22T09:35:11.472Z,91.54
2022-11-22T09:37:37.977Z,92.00
2022-11-22T09:40:05.041Z,91.70
2022-11-22T09:42:47.463Z,92.08
2022-11-22T09:45:35.290Z,91.56
2022-11-22T09:48:09.885Z,92.20
2022-11-22T09:51:09.496Z,92.14
2022-11-22T09:53:48.342Z,91.58
2022-11-22T09:56:21.520Z,91.44
2022-11-22T09:59:11.633Z,90.97
2022-11-22T10:01:48.651Z,90.96
2022-11-22T10:04:24.859Z,91.06
2022-11-22T10:06:59.297Z,90.90
2022-11-22T10:09:26.482Z,90.87
2022-11-22T10:12:15.525Z,90.77
2022-11-22T10:14:58.709Z,90.94
2022-11-22T10:17:48.002Z,90.33
2022-11-22T10:20:23.534Z,90.12
2022-11-22T10:22:50.754Z,89.35
2022-11-22T10:25:20.617Z,89.43
2022-11-22T10:28:00.801Z,88.97
2022-11-22T10:30:35.858Z,88.49
2022-11-22T10:33:21.774Z,89.05
2022-11-22T10:36:13.131Z,87.17
2022-11-22T10:39:34.103Z,87.25
2022-11-22T10:42:19.683Z,87.72
2022-11-22T10:45:11.692Z,87.37
2022-11-22T10:48:15.127Z,87.61
2022-11-22T10:50:44.468Z,87.32
2022-11-22T10:53:48.394Z,87.30
2022-11-22T10:56:30.259Z,87.29
2022-11-22T10:59:18.100Z,86.83
2022-11-22T11:01:53.576Z,87.72
2022-11-22T11:04:21.167Z,87.58
2022-11-22T11:12:44.605Z,86.79
2022-11-22T11:15:37.702Z,87.18
2022-11-22T11:18:11.808Z,87.09
2022-11-22T11:20:41.840Z,87.20
2022-11-22T11:23:15.149Z,86.69
2022-11-22T11:25:47.443Z,86.92
2022-11-22T11:28:19.462Z,86.85
2022-11-22T11:30:50.967Z,87.89
2022-11-22T11:33:26.668Z,87.63
2022-11-22T11:35:57.043Z,87.87
2022-11-22T11:38:41.583Z,87.48
2022-11-22T11:41:30.596Z,87.58
2022-11-22T11:43:59.624Z,87.32
2022-11-22T11:46:28.950Z,87.10
2022-11-22T11:49:17.641Z,87.33
2022-11-22T11:51:45.255Z,87.60
2022-11-22T11:54:18.727Z,86.97
2022-11-22T11:56:59.578Z,86.22
2022-11-22T11:59:38.026Z,85.87
2022-11-22T12:02:18.096Z,85.57
2022-11-22T12:05:01.411Z,86.21
2022-11-22T12:07:34.068Z,86.29
2022-11-22T12:10:02.388Z,86.47
2022-11-22T12:12:50.865Z,86.11
2022-11-22T12:15:35.510Z,85.64
2022-11-22T12:18:28.131Z,85.21
2022-11-22T12:21:11.846Z,86.10
2022-11-22T12:23:50.883Z,86.70
2022-11-22T12:26:18.595Z,86.28
2022-11-22T12:28:45.184Z,85.47
2022-11-22T12:31:37.226Z,85.26
2022-11-22T12:34:37.959Z,85.64
2022-11-22T12:37:16.927Z,85.34
2022-11-22T12:39:47.643Z,85.38
2022-11-22T12:42:23.450Z,85.77
2022-11-22T12:45:13.827Z,86.92
2022-11-22T12:47:43.596Z,86.77
2022-11-22T12:50:25.832Z,87.41
2022-11-22T12:53:02.765Z,86.59
2022-11-22T12:55:59.110Z,86.61
2022-11-22T12:58:40.671Z,86.16
2022-11-22T13:01:28.931Z,86.02
2022-11-22T13:04:15.621Z,85.88
2022-11-22T13:07:05.520Z,86.40
2022-11-22T13:09:36.292Z,87.13
2022-11-22T13:12:12.169Z,86.83
2022-11-22T13:14:41.551Z,86.69
2022-11-22T13:17:13.107Z,86.76
2022-11-22T13:20:03.138Z,85.83
2022-11-22T13:22:44.726Z,85.84
2022-11-22T13:25:31.983Z,85.85
2022-11-22T13:28:02.453Z,86.15
2022-11-22T13:30:30.714Z,86.25
2022-11-22T13:32:59.927Z,86.79
2022-11-22T13:35:39.055Z,86.11
2022-11-22T13:38:13.658Z,86.18
2022-11-22T13:40:43.586Z,86.22
2022-11-22T13:43:18.006Z,86.78
2022-11-22T13:45:51.852Z,87.02
2022-11-22T13:48:40.040Z,86.91
2022-11-22T13:51:14.894Z,87.36
2022-11-22T13:53:43.988Z,87.12
2022-11-22T13:56:16.709Z,86.90
2022-11-22T13:58:50.709Z,86.49
2022-11-22T14:01:36.079Z,86.35
2022-11-22T14:04:21.095Z,86.08
2022-11-22T14:06:53.730Z,85.95
2022-11-22T14:09:50.584Z,85.94
2022-11-22T14:12:32.009Z,86.09
2022-11-22T14:15:17.305Z,86.20
2022-11-22T14:17:49.863Z,86.10
2022-11-22T14:20:35.110Z,86.62
2022-11-22T14:23:16.832Z,87.03
2022-11-22T14:26:04.408Z,87.30
2022-11-22T14:29:12.869Z,86.50
2022-11-22T14:31:40.561Z,86.26
2022-11-22T14:34:23.657Z,87.31
2022-11-22T14:37:34.485Z,86.29
2022-11-22T14:40:06.711Z,87.48
2022-11-22T14:42:36.498Z,88.04
2022-11-22T14:45:11.830Z,88.49
2022-11-22T14:47:47.598Z,89.08
2022-11-22T14:50:22.171Z,88.40
2022-11-22T14:52:49.594Z,88.16
2022-11-22T14:55:26.247Z,88.66
2022-11-22T14:58:00.712Z,88.81
2022-11-22T15:00:55.852Z,88.62
2022-11-22T15:03:43.251Z,89.47
2022-11-22T15:09:14.436Z,88.52
2022-11-22T15:09:46.659Z,89.17
2022-11-22T15:12:12.543Z,88.73
2022-11-22T15:14:56.640Z,88.34
2022-11-22T15:57:44.674Z,87.03
2022-11-22T16:00:29.583Z,87.47
2022-11-22T16:02:58.350Z,87.23
2022-11-22T16:06:10.132Z,86.89
2022-11-22T16:08:32.938Z,87.73
2022-11-22T16:11:00.038Z,87.44
2022-11-22T16:13:29.428Z,87.76
2022-11-22T16:16:12.705Z,86.94
2022-11-22T16:18:40.512Z,87.48
2022-11-22T16:21:21.464Z,87.13
2022-11-22T16:24:07.163Z,87.38
2022-11-22T16:26:33.752Z,87.58
2022-11-22T16:29:26.287Z,87.17
2022-11-22T16:32:13.959Z,87.61
2022-11-22T16:34:44.316Z,86.85
2022-11-22T16:37:36.396Z,85.60
2022-11-22T16:40:06.120Z,86.23
2022-11-22T16:42:33.152Z,86.02
2022-11-22T16:45:04.051Z,86.13
2022-11-22T16:47:31.111Z,86.20
2022-11-22T16:49:57.747Z,86.29
2022-11-22T16:52:25.065Z,86.32
2022-11-22T16:54:51.615Z,86.72
2022-11-22T16:57:18.282Z,85.99
2022-11-22T16:59:44.921Z,86.41
2022-11-22T17:02:14.167Z,86.31
2022-11-22T17:04:41.390Z,86.04
2022-11-22T17:07:11.899Z,86.07
2022-11-22T17:09:38.673Z,85.90
2022-11-22T17:12:19.717Z,86.44
2022-11-22T17:14:48.466Z,86.60
2022-11-22T17:17:15.187Z,85.90
2022-11-22T17:19:57.019Z,85.02
2022-11-22T17:22:23.586Z,85.85
2022-11-22T17:24:50.088Z,85.91
2022-11-22T17:27:16.590Z,85.94
2022-11-22T17:29:50.468Z,85.36
2022-11-22T17:32:17.724Z,85.55
2022-11-22T17:34:44.267Z,85.47
2022-11-22T17:37:12.549Z,86.01
2022-11-22T17:39:39.814Z,85.86
2022-11-22T17:42:06.782Z,85.31
2022-11-22T17:44:34.203Z,85.17
2022-11-22T17:47:01.034Z,85.01
2022-11-22T17:49:28.559Z,85.28
2022-11-22T17:51:55.496Z,85.32
2022-11-22T17:54:22.130Z,84.70
2022-11-22T17:56:48.712Z,84.64
2022-11-22T17:59:15.235Z,84.64
2022-11-22T18:01:43.188Z,84.56
2022-11-22T18:04:10.156Z,84.73
2022-11-22T18:06:36.771Z,83.93
2022-11-22T18:09:03.484Z,84.06
2022-11-22T18:11:30.307Z,84.70
2022-11-22T18:13:56.835Z,84.26
2022-11-22T18:16:28.346Z,83.21
2022-11-22T18:18:59.045Z,83.44
2022-11-22T18:21:29.213Z,83.52
2022-11-22T18:23:57.645Z,84.31
2022-11-22T18:26:38.890Z,83.84
2022-11-22T18:31:54.290Z,81.72
2022-11-22T18:34:22.098Z,81.75
2022-11-22T18:37:00.723Z,82.17
2022-11-22T18:39:28.906Z,82.73
2022-11-22T18:41:55.677Z,83.08
2022-11-22T18:44:22.200Z,82.47
2022-11-22T18:46:48.832Z,83.10
2022-11-22T18:49:15.698Z,83.26
2022-11-22T18:51:42.393Z,82.90
2022-11-22T18:54:10.427Z,83.65
2022-11-22T18:56:37.966Z,83.15
2022-11-22T18:59:06.259Z,83.30
2022-11-22T19:01:34.666Z,83.01
2022-11-22T19:04:02.032Z,82.93
2022-11-22T19:06:28.983Z,83.49
2022-11-22T19:08:55.557Z,84.20
2022-11-22T19:11:22.217Z,84.16
2022-11-22T19:13:49.105Z,84.01
2022-11-22T19:16:18.428Z,85.22
2022-11-22T19:18:45.452Z,85.90
2022-11-22T19:21:17.836Z,84.65
2022-11-22T19:23:44.588Z,84.85
2022-11-22T19:26:14.327Z,84.99
2022-11-22T19:28:41.672Z,85.56
2022-11-22T19:31:14.630Z,85.86
2022-11-22T19:33:41.238Z,85.60
2022-11-22T19:36:14.364Z,85.72
2022-11-22T19:38:41.896Z,85.52
2022-11-22T19:41:20.449Z,85.95
2022-11-22T19:43:48.375Z,85.44
2022-11-22T19:46:15.567Z,85.64
2022-11-22T19:48:46.895Z,85.36
2022-11-22T19:51:15.603Z,86.11
2022-11-22T19:53:42.876Z,85.76
2022-11-22T19:56:19.464Z,84.87
2022-11-22T19:58:54.176Z,84.35
2022-11-22T20:01:23.170Z,85.25
2022-11-22T20:03:58.363Z,85.54
2022-11-22T20:06:25.446Z,85.86
2022-11-22T20:08:52.153Z,85.68
2022-11-22T20:11:21.044Z,85.95
2022-11-22T20:13:50.305Z,86.26
2022-11-22T20:16:23.280Z,86.20
2022-11-22T20:19:09.571Z,85.83
2022-11-22T20:21:38.709Z,85.97
2022-11-22T20:24:06.555Z,85.86
2022-11-22T20:26:33.718Z,85.35
2022-11-22T20:29:03.312Z,86.11
2022-11-22T20:31:31.528Z,86.25
2022-11-22T20:33:59.564Z,85.89
2022-11-22T20:36:31.822Z,86.36
2022-11-22T20:38:58.708Z,86.92
2022-11-22T20:41:27.594Z,86.99
2022-11-22T20:43:55.414Z,87.27
2022-11-22T20:46:24.760Z,87.37
2022-11-22T20:48:55.825Z,87.04
2022-11-22T20:51:24.620Z,87.72
2022-11-22T20:53:51.664Z,87.39
2022-11-22T20:56:19.213Z,87.87
2022-11-22T20:58:46.076Z,87.35
2022-11-22T21:01:18.324Z,87.82
2022-11-22T21:03:45.312Z,87.52
2022-11-22T21:06:13.275Z,87.45
2022-11-22T21:08:40.078Z,87.45
2022-11-22T21:11:17.879Z,87.62
2022-11-22T21:13:45.627Z,87.61
2022-11-22T21:16:25.045Z,87.39
2022-11-22T21:18:58.020Z,87.71
2022-11-22T21:21:25.725Z,88.04
2022-11-22T21:23:56.647Z,88.65
2022-11-22T21:26:24.855Z,88.42
2022-11-22T21:28:52.789Z,88.66
2022-11-22T21:31:20.540Z,88.40
2022-11-22T21:33:47.508Z,88.46
2022-11-22T21:36:14.625Z,88.53
2022-11-22T21:38:41.266Z,87.95
2022-11-22T21:43:59.512Z,88.54
2022-11-22T21:46:26.186Z,88.13
2022-11-22T21:48:55.657Z,88.58
2022-11-22T21:51:23.160Z,88.71
2022-11-22T21:53:49.662Z,88.73
2022-11-22T21:56:16.171Z,88.58
2022-11-22T21:58:43.037Z,88.45
2022-11-22T22:01:14.070Z,88.75
2022-11-22T22:03:41.088Z,88.49
2022-11-22T22:06:07.722Z,88.53
2022-11-22T22:08:34.388Z,88.17
2022-11-22T22:11:02.558Z,87.73
2022-11-22T22:13:30.917Z,88.38
2022-11-22T22:15:59.292Z,87.94
2022-11-22T22:18:33.402Z,87.54
2022-11-22T22:21:01.424Z,87.86
2022-11-22T22:23:28.533Z,87.57
2022-11-22T22:26:00.048Z,87.64
2022-11-22T22:28:34.626Z,87.54
2022-11-22T22:31:17.195Z,88.04
2022-11-22T22:33:45.622Z,88.19
2022-11-22T22:36:12.239Z,88.57
2022-11-22T22:38:39.174Z,87.96
2022-11-22T22:41:07.455Z,88.09
2022-11-22T22:43:37.164Z,87.96
2022-11-22T22:46:06.613Z,88.22
2022-11-22T22:48:34.308Z,87.73
2022-11-22T22:51:21.749Z,88.14
2022-11-22T22:53:48.634Z,88.06
2022-11-22T22:56:19.392Z,88.25
2022-11-22T22:58:46.081Z,88.06
2022-11-22T23:01:21.442Z,87.74
2022-11-22T23:03:57.263Z,87.86
2022-11-22T23:06:25.338Z,87.92
2022-11-22T23:08:53.393Z,88.31
2022-11-22T23:11:42.945Z,87.82
2022-11-22T23:14:09.757Z,87.67
2022-11-22T23:16:38.221Z,87.71
2022-11-22T23:19:05.634Z,88.00
2022-11-22T23:21:32.362Z,88.08
2022-11-22T23:23:58.990Z,87.69
2022-11-22T23:26:25.628Z,87.72
2022-11-22T23:28:53.493Z,87.43
2022-11-22T23:31:20.837Z,87.30
2022-11-22T23:33:47.837Z,87.58
2022-11-22T23:36:16.702Z,87.91
2022-11-22T23:38:43.784Z,87.74
2022-11-22T23:41:14.511Z,87.86
2022-11-22T23:43:41.869Z,87.53
2022-11-22T23:46:16.092Z,88.07
2022-11-22T23:48:44.311Z,87.81
2022-11-22T23:51:11.295Z,88.36
2022-11-22T23:53:38.164Z,88.12
2022-11-22T23:56:10.126Z,87.79
2022-11-22T23:58:37.169Z,87.75
